Time;durP1;ratioP1;P1;durP2;ratioP2;P2;SDS_P1;SDS_P2;PMS_P1;PMS_P2;Temp;Humidity;BMP_temperature;BMP_pressure;BME280_temperature;BME280_humidity;BME280_pressure;Samples;Min_cycle;Max_cycle;Signal;HPM_P1;HPM_P2
2021/12/08 00:01:11;;;;;;;;;;;1.00;99.90;;;;;;5052923;28;20406;-52
2021/12/08 00:03:40;;;;;;;;;;;1.40;99.90;;;;;;5054333;28;20585;-52
2021/12/08 00:06:07;;;;;;;;;;;1.50;99.90;;;;;;5054148;28;20326;-52
2021/12/08 00:08:34;;;;;;;;;;;1.40;99.90;;;;;;5052222;28;19928;-52
2021/12/08 00:13:45;;;;;;;;;;;1.20;99.90;;;;;;5053526;28;20365;-52
2021/12/08 00:16:13;;;;;;;;;;;1.20;99.90;;;;;;5052931;28;20382;-52
2021/12/08 00:18:46;;;;;;;;;;;1.20;99.90;;;;;;5053825;28;19932;-52
2021/12/08 00:21:14;;;;;;;;;;;1.30;99.90;;;;;;5053489;28;19940;-51
2021/12/08 00:23:41;;;;;;;;;;;1.40;99.90;;;;;;5054194;28;19932;-52
2021/12/08 00:26:08;;;;;;;;;;;1.40;99.90;;;;;;5054043;28;19928;-51
2021/12/08 00:28:34;;;;;;;;;;;1.50;99.90;;;;;;5054572;28;19986;-51
2021/12/08 00:31:03;;;;;;;;;;;1.50;99.90;;;;;;5052254;28;19925;-51
2021/12/08 00:33:30;;;;;;;;;;;1.70;99.90;;;;;;5068964;28;19940;-51
2021/12/08 00:36:00;;;;;;;;;;;1.60;99.90;;;;;;5075211;28;20314;-51
2021/12/08 00:38:27;;;;;;;;;;;1.40;99.90;;;;;;5076465;28;19947;-51
2021/12/08 00:40:54;;;;;;;;;;;1.40;99.90;;;;;;5075094;28;19925;-52
2021/12/08 00:43:22;;;;;;;;;;;1.20;99.90;;;;;;5076574;28;19955;-51
2021/12/08 00:45:49;;;;;;;;;;;1.20;99.90;;;;;;5077277;28;19909;-51
2021/12/08 00:48:16;;;;;;;;;;;1.00;99.90;;;;;;5063993;28;20390;-51
2021/12/08 00:50:43;;;;;;;;;;;1.20;99.90;;;;;;5052645;28;19925;-51
2021/12/08 00:53:12;;;;;;;;;;;1.30;99.90;;;;;;5053955;28;19929;-52
2021/12/08 00:55:39;;;;;;;;;;;1.20;99.90;;;;;;5053504;28;19924;-51
2021/12/08 00:58:06;;;;;;;;;;;1.20;99.90;;;;;;5038357;28;20375;-52
2021/12/08 01:00:34;;;;;;;;;;;1.20;99.90;;;;;;5032546;28;20441;-51
2021/12/08 01:03:01;;;;;;;;;;;1.10;99.90;;;;;;5034499;28;19936;-52
2021/12/08 01:05:29;;;;;;;;;;;1.20;99.90;;;;;;5052538;28;19932;-51
2021/12/08 01:07:56;;;;;;;;;;;0.90;99.90;;;;;;5053088;28;19924;-52
2021/12/08 01:10:25;;;;;;;;;;;1.00;99.90;;;;;;5052176;28;19932;-51
2021/12/08 01:12:55;;;;;;;;;;;1.10;99.90;;;;;;5051212;28;19932;-51
2021/12/08 01:15:22;;;;;;;;;;;1.10;99.90;;;;;;5052226;28;19925;-51
2021/12/08 01:17:52;;;;;;;;;;;0.90;99.90;;;;;;5052259;28;19925;-52
2021/12/08 01:20:18;;;;;;;;;;;0.90;99.90;;;;;;5051806;28;19925;-51
2021/12/08 01:22:47;;;;;;;;;;;0.90;99.90;;;;;;5052421;28;19971;-52
2021/12/08 01:25:14;;;;;;;;;;;1.00;99.90;;;;;;5052423;28;19924;-51
2021/12/08 01:27:46;;;;;;;;;;;1.00;99.90;;;;;;5052289;28;19970;-52
2021/12/08 01:30:13;;;;;;;;;;;1.10;99.90;;;;;;5050143;28;19931;-51
2021/12/08 01:38:46;;;;;;;;;;;0.80;99.90;;;;;;5041787;28;19943;-52
2021/12/08 01:41:13;;;;;;;;;;;0.80;99.90;;;;;;5051655;28;19925;-52
2021/12/08 01:43:43;;;;;;;;;;;0.80;99.90;;;;;;5051506;28;20402;-52
2021/12/08 01:46:10;;;;;;;;;;;0.80;99.90;;;;;;5051451;28;19929;-52
2021/12/08 01:48:38;;;;;;;;;;;0.70;99.90;;;;;;5051955;28;19927;-52
2021/12/08 01:51:06;;;;;;;;;;;0.60;99.90;;;;;;5051534;28;19979;-52
2021/12/08 01:53:33;;;;;;;;;;;0.70;99.90;;;;;;5051431;28;19924;-52
2021/12/08 01:56:00;;;;;;;;;;;0.90;99.90;;;;;;5051569;28;19924;-52
2021/12/08 01:58:27;;;;;;;;;;;0.90;99.90;;;;;;5052007;28;19925;-51
2021/12/08 02:00:56;;;;;;;;;;;0.80;99.90;;;;;;5049949;28;19932;-52
2021/12/08 02:03:24;;;;;;;;;;;0.90;99.90;;;;;;5051951;28;19987;-52
2021/12/08 02:05:51;;;;;;;;;;;0.80;99.90;;;;;;5051657;28;19924;-52
2021/12/08 02:08:18;;;;;;;;;;;0.90;99.90;;;;;;5052041;28;19986;-52
2021/12/08 02:10:45;;;;;;;;;;;0.90;99.90;;;;;;5050846;28;19925;-52
2021/12/08 02:13:12;;;;;;;;;;;0.70;99.90;;;;;;5051528;28;19929;-52
2021/12/08 02:15:39;;;;;;;;;;;0.60;99.90;;;;;;5048519;28;19933;-51
2021/12/08 02:18:09;;;;;;;;;;;0.60;99.90;;;;;;5031850;28;19975;-52
2021/12/08 02:20:36;;;;;;;;;;;0.50;99.90;;;;;;5031358;28;20365;-52
2021/12/08 02:23:04;;;;;;;;;;;0.60;99.90;;;;;;5031989;28;19972;-52
2021/12/08 02:25:31;;;;;;;;;;;0.60;99.90;;;;;;5051200;28;19928;-52
2021/12/08 02:27:59;;;;;;;;;;;0.70;99.90;;;;;;5051683;28;19994;-52
2021/12/08 02:30:32;;;;;;;;;;;0.80;99.90;;;;;;5050738;28;19925;-51
2021/12/08 02:47:03;;;;;;;;;;;1.80;99.90;;;;;;5051407;28;19928;-52
2021/12/08 02:49:30;;;;;;;;;;;1.70;99.90;;;;;;5039059;28;19926;-51
2021/12/08 02:51:56;;;;;;;;;;;1.50;99.90;;;;;;5050686;28;19925;-51
2021/12/08 02:54:25;;;;;;;;;;;1.50;99.90;;;;;;5051341;28;20344;-51
2021/12/08 02:56:54;;;;;;;;;;;1.30;99.90;;;;;;5051446;28;19929;-51
2021/12/08 02:59:20;;;;;;;;;;;1.20;99.90;;;;;;5051907;28;19933;-52
2021/12/08 03:01:47;;;;;;;;;;;1.20;99.90;;;;;;5051855;28;19924;-52
2021/12/08 03:04:14;;;;;;;;;;;1.20;99.90;;;;;;5049539;28;20398;-51
2021/12/08 03:06:41;;;;;;;;;;;1.00;99.90;;;;;;5053806;28;19928;-51
2021/12/08 03:09:08;;;;;;;;;;;1.20;99.90;;;;;;5054926;28;19978;-51
2021/12/08 03:11:37;;;;;;;;;;;1.10;99.90;;;;;;5053733;28;19925;-51
2021/12/08 03:14:06;;;;;;;;;;;1.10;99.90;;;;;;5054090;28;20031;-52
2021/12/08 03:16:33;;;;;;;;;;;1.20;99.90;;;;;;5054633;28;19970;-52
2021/12/08 03:19:00;;;;;;;;;;;1.20;99.90;;;;;;5054432;28;19924;-51
2021/12/08 03:21:31;;;;;;;;;;;1.20;99.90;;;;;;5053325;28;20016;-52
2021/12/08 03:24:10;;;;;;;;;;;1.20;99.90;;;;;;5054222;28;19925;-51
2021/12/08 03:26:46;;;;;;;;;;;1.30;99.90;;;;;;5054277;28;20063;-51
2021/12/08 03:29:22;;;;;;;;;;;1.40;99.90;;;;;;5054687;28;19956;-51
2021/12/08 03:31:51;;;;;;;;;;;1.30;99.90;;;;;;5053990;28;19925;-52
2021/12/08 03:34:21;;;;;;;;;;;1.20;99.90;;;;;;5054153;28;19924;-52
2021/12/08 03:36:48;;;;;;;;;;;1.30;99.90;;;;;;5053678;28;19925;-52
2021/12/08 03:39:15;;;;;;;;;;;1.30;99.90;;;;;;5054217;28;19928;-51
2021/12/08 03:41:43;;;;;;;;;;;1.30;99.90;;;;;;5053799;28;19928;-52
2021/12/08 03:44:10;;;;;;;;;;;1.30;99.90;;;;;;5054194;28;19970;-52
2021/12/08 03:46:40;;;;;;;;;;;1.40;99.90;;;;;;5053956;28;19925;-51
2021/12/08 03:49:10;;;;;;;;;;;1.50;99.90;;;;;;5054126;28;19925;-51
2021/12/08 03:51:37;;;;;;;;;;;1.40;99.90;;;;;;5033746;28;19983;-51
2021/12/08 03:54:04;;;;;;;;;;;1.50;99.90;;;;;;5044063;28;19986;-51
2021/12/08 03:56:31;;;;;;;;;;;1.60;99.90;;;;;;5054181;28;20318;-52
2021/12/08 03:58:59;;;;;;;;;;;1.50;99.90;;;;;;5054056;28;19951;-51
2021/12/08 04:01:25;;;;;;;;;;;1.60;99.90;;;;;;5052951;28;19979;-52
2021/12/08 04:03:53;;;;;;;;;;;1.60;99.90;;;;;;5053794;28;19924;-52
2021/12/08 04:06:29;;;;;;;;;;;1.60;99.90;;;;;;5054048;28;19937;-51
2021/12/08 04:08:57;;;;;;;;;;;1.40;99.90;;;;;;5053134;28;19971;-52
2021/12/08 04:11:24;;;;;;;;;;;1.50;99.90;;;;;;5052782;28;20015;-52
2021/12/08 04:13:52;;;;;;;;;;;1.50;99.90;;;;;;5053089;28;20423;-51
2021/12/08 04:16:24;;;;;;;;;;;1.30;99.90;;;;;;5053262;28;19971;-52
2021/12/08 04:18:51;;;;;;;;;;;1.20;99.90;;;;;;5053842;28;19925;-52
2021/12/08 04:21:18;;;;;;;;;;;1.20;99.90;;;;;;5053056;28;19931;-51
2021/12/08 04:23:45;;;;;;;;;;;1.10;99.90;;;;;;5052563;28;19947;-52
2021/12/08 04:26:14;;;;;;;;;;;1.20;99.90;;;;;;5052319;28;19929;-52
2021/12/08 04:28:41;;;;;;;;;;;1.30;99.90;;;;;;5050051;28;20006;-51
2021/12/08 04:31:10;;;;;;;;;;;1.40;99.90;;;;;;5045202;28;20387;-52
2021/12/08 04:33:39;;;;;;;;;;;1.40;99.90;;;;;;5050115;28;19924;-52
2021/12/08 04:36:08;;;;;;;;;;;1.60;99.90;;;;;;5053102;28;19925;-52
2021/12/08 04:38:39;;;;;;;;;;;1.60;99.90;;;;;;5047243;28;20327;-52
2021/12/08 04:41:07;;;;;;;;;;;1.50;99.90;;;;;;5044253;28;19971;-52
2021/12/08 04:43:41;;;;;;;;;;;1.60;99.90;;;;;;5033114;28;20398;-51
2021/12/08 04:46:15;;;;;;;;;;;1.50;99.90;;;;;;5033115;28;19932;-52
2021/12/08 04:49:03;;;;;;;;;;;1.60;99.90;;;;;;5042268;28;20027;-52
2021/12/08 05:02:48;;;;;;;;;;;2.00;99.90;;;;;;5052442;28;19970;-52
2021/12/08 05:05:24;;;;;;;;;;;2.00;99.90;;;;;;5052832;28;19925;-52
2021/12/08 05:07:56;;;;;;;;;;;2.10;99.90;;;;;;5052837;28;19929;-52
2021/12/08 05:10:27;;;;;;;;;;;2.20;99.90;;;;;;5040678;28;19983;-52
2021/12/08 05:12:54;;;;;;;;;;;2.10;99.90;;;;;;5042834;28;19932;-52
2021/12/08 05:15:23;;;;;;;;;;;2.00;99.90;;;;;;5066731;28;19929;-52
2021/12/08 05:17:52;;;;;;;;;;;1.90;99.90;;;;;;5059536;28;19928;-52
2021/12/08 05:20:23;;;;;;;;;;;1.80;99.90;;;;;;5032285;28;19929;-52
2021/12/08 05:22:55;;;;;;;;;;;2.00;99.90;;;;;;5044551;28;19929;-51
2021/12/08 05:25:24;;;;;;;;;;;2.00;99.90;;;;;;5067887;28;19939;-52
2021/12/08 05:27:56;;;;;;;;;;;1.90;99.90;;;;;;5049962;28;19979;-52
2021/12/08 05:30:24;;;;;;;;;;;1.70;99.90;;;;;;5051564;28;19928;-52
2021/12/08 05:32:52;;;;;;;;;;;1.80;99.90;;;;;;5052260;28;20398;-52
2021/12/08 05:35:20;;;;;;;;;;;1.70;99.90;;;;;;5052230;28;19947;-52
2021/12/08 05:37:48;;;;;;;;;;;1.60;99.90;;;;;;5039152;28;19995;-51
2021/12/08 05:40:16;;;;;;;;;;;1.70;99.90;;;;;;5038902;28;19932;-52
2021/12/08 05:42:44;;;;;;;;;;;1.90;99.90;;;;;;5050777;28;19924;-51
2021/12/08 05:45:12;;;;;;;;;;;2.20;99.90;;;;;;5043870;28;19924;-52
2021/12/08 05:47:40;;;;;;;;;;;2.30;99.90;;;;;;5046710;28;19924;-52
2021/12/08 05:50:08;;;;;;;;;;;2.30;99.90;;;;;;5050949;28;19931;-52
2021/12/08 05:52:35;;;;;;;;;;;2.20;99.90;;;;;;5031808;28;19933;-52
2021/12/08 05:55:05;;;;;;;;;;;2.20;99.90;;;;;;5031847;28;20376;-52
2021/12/08 05:57:33;;;;;;;;;;;2.10;99.90;;;;;;5032215;28;19929;-54
2021/12/08 06:00:02;;;;;;;;;;;2.10;99.90;;;;;;5042945;28;19947;-53
2021/12/08 06:02:31;;;;;;;;;;;2.00;99.90;;;;;;5051552;28;19932;-54
2021/12/08 06:04:58;;;;;;;;;;;2.10;99.90;;;;;;5051683;28;20295;-52
2021/12/08 06:07:25;;;;;;;;;;;1.90;99.90;;;;;;5051900;28;20283;-53
2021/12/08 06:09:54;;;;;;;;;;;1.80;99.90;;;;;;5048820;28;19970;-54
2021/12/08 06:12:22;;;;;;;;;;;1.70;99.90;;;;;;5064721;28;19970;-53
2021/12/08 06:14:54;;;;;;;;;;;1.90;99.90;;;;;;5055747;28;19929;-53
2021/12/08 06:17:23;;;;;;;;;;;2.00;99.90;;;;;;5032493;28;19925;-53
2021/12/08 06:19:49;;;;;;;;;;;2.20;99.90;;;;;;5031879;28;19933;-53
2021/12/08 06:22:18;;;;;;;;;;;2.00;99.90;;;;;;5050002;28;20399;-53
2021/12/08 06:24:45;;;;;;;;;;;2.10;99.90;;;;;;5044388;28;19929;-53
2021/12/08 06:27:12;;;;;;;;;;;2.00;99.90;;;;;;5049505;28;20011;-52
2021/12/08 06:29:41;;;;;;;;;;;2.00;99.90;;;;;;5049513;28;19925;-53
2021/12/08 06:32:09;;;;;;;;;;;1.80;99.90;;;;;;5040873;28;19925;-53
2021/12/08 06:34:36;;;;;;;;;;;1.80;99.90;;;;;;5051408;28;19979;-55
2021/12/08 06:37:05;;;;;;;;;;;1.70;99.90;;;;;;5051569;28;19929;-54
2021/12/08 06:39:34;;;;;;;;;;;1.50;99.90;;;;;;5053548;28;19929;-54
2021/12/08 06:42:02;;;;;;;;;;;1.20;99.90;;;;;;5054573;28;19924;-54
2021/12/08 06:44:31;;;;;;;;;;;1.10;99.90;;;;;;5055387;28;19971;-52
2021/12/08 06:47:00;;;;;;;;;;;1.20;99.90;;;;;;5055429;28;19925;-53
2021/12/08 06:49:27;;;;;;;;;;;1.20;99.90;;;;;;5054695;28;20395;-53
2021/12/08 06:51:55;;;;;;;;;;;1.20;99.90;;;;;;5054353;28;19925;-53
2021/12/08 06:54:23;;;;;;;;;;;1.30;99.90;;;;;;5054296;28;20395;-53
2021/12/08 06:56:53;;;;;;;;;;;1.30;99.90;;;;;;5055418;28;19987;-54
2021/12/08 06:59:22;;;;;;;;;;;1.30;99.90;;;;;;5055061;28;19928;-53
2021/12/08 07:01:58;;;;;;;;;;;1.30;99.90;;;;;;5054399;28;19947;-54
2021/12/08 07:04:32;;;;;;;;;;;1.50;99.90;;;;;;5052969;28;19947;-54
2021/12/08 07:07:01;;;;;;;;;;;1.50;99.90;;;;;;5050385;28;19925;-55
2021/12/08 07:09:31;;;;;;;;;;;1.50;99.90;;;;;;5043296;28;19983;-53
2021/12/08 07:12:01;;;;;;;;;;;1.40;99.90;;;;;;5042279;28;19933;-54
2021/12/08 07:14:29;;;;;;;;;;;1.40;99.90;;;;;;5054651;28;19982;-53
2021/12/08 07:16:57;;;;;;;;;;;1.50;99.90;;;;;;5053639;28;19928;-55
2021/12/08 07:19:32;;;;;;;;;;;1.50;99.90;;;;;;5053850;28;19928;-53
2021/12/08 07:22:02;;;;;;;;;;;1.60;99.90;;;;;;5049471;28;20015;-55
2021/12/08 07:24:32;;;;;;;;;;;1.50;99.90;;;;;;5050604;28;19928;-54
2021/12/08 07:27:01;;;;;;;;;;;1.60;99.90;;;;;;5052901;28;19994;-53
2021/12/08 07:29:29;;;;;;;;;;;1.60;99.90;;;;;;5053460;28;19971;-54
2021/12/08 07:31:58;;;;;;;;;;;1.70;99.90;;;;;;5053625;28;20339;-54
2021/12/08 07:34:25;;;;;;;;;;;1.70;99.90;;;;;;5053624;28;20011;-53
2021/12/08 07:36:54;;;;;;;;;;;1.80;99.90;;;;;;5045139;28;20379;-54
2021/12/08 07:39:26;;;;;;;;;;;1.90;99.90;;;;;;5054166;28;20510;-53
2021/12/08 07:41:55;;;;;;;;;;;2.00;99.90;;;;;;5052892;28;20572;-54
2021/12/08 07:44:23;;;;;;;;;;;2.20;99.90;;;;;;5052918;28;19924;-54
2021/12/08 07:46:51;;;;;;;;;;;2.20;99.90;;;;;;5053755;28;19946;-53
2021/12/08 07:49:21;;;;;;;;;;;2.20;99.90;;;;;;5053287;28;20357;-54
2021/12/08 07:51:49;;;;;;;;;;;2.20;99.90;;;;;;5052504;28;19924;-53
2021/12/08 07:54:17;;;;;;;;;;;2.10;99.90;;;;;;5053480;28;19929;-53
2021/12/08 07:56:47;;;;;;;;;;;2.10;99.90;;;;;;5048421;28;20456;-54
2021/12/08 07:59:17;;;;;;;;;;;2.10;99.90;;;;;;5048398;28;20349;-54
2021/12/08 08:01:46;;;;;;;;;;;2.30;99.90;;;;;;5051910;28;19925;-55
2021/12/08 08:04:16;;;;;;;;;;;2.40;99.90;;;;;;5053764;28;20058;-51
2021/12/08 08:06:44;;;;;;;;;;;2.50;99.90;;;;;;5053374;28;20449;-54
2021/12/08 08:09:14;;;;;;;;;;;2.40;99.90;;;;;;5053240;28;20046;-54
2021/12/08 08:11:42;;;;;;;;;;;2.60;99.90;;;;;;5052919;28;19931;-53
2021/12/08 08:14:12;;;;;;;;;;;2.70;99.90;;;;;;5046814;28;19952;-54
2021/12/08 08:16:40;;;;;;;;;;;2.40;99.90;;;;;;5053336;28;19925;-54
2021/12/08 08:19:10;;;;;;;;;;;2.20;99.90;;;;;;5040985;28;19932;-54
2021/12/08 08:21:41;;;;;;;;;;;2.10;99.90;;;;;;5035215;28;19960;-53
2021/12/08 08:24:08;;;;;;;;;;;2.00;99.90;;;;;;5035241;28;19990;-53
2021/12/08 08:26:36;;;;;;;;;;;1.90;99.90;;;;;;5034908;28;20446;-54
2021/12/08 08:29:02;;;;;;;;;;;2.00;99.90;;;;;;5041447;28;19933;-53
2021/12/08 08:31:33;;;;;;;;;;;2.30;99.90;;;;;;5055271;28;19980;-53
2021/12/08 08:34:00;;;;;;;;;;;2.50;99.90;;;;;;5055438;28;19971;-53
2021/12/08 08:36:29;;;;;;;;;;;2.50;99.90;;;;;;5056206;28;19929;-54
2021/12/08 08:38:58;;;;;;;;;;;2.50;99.90;;;;;;5055199;28;19978;-53
2021/12/08 08:41:27;;;;;;;;;;;2.50;99.90;;;;;;5055304;28;20353;-54
2021/12/08 08:43:54;;;;;;;;;;;2.60;99.90;;;;;;5056004;28;19982;-53
2021/12/08 08:46:24;;;;;;;;;;;2.50;99.90;;;;;;5054210;28;20008;-54
2021/12/08 08:48:54;;;;;;;;;;;2.50;99.90;;;;;;5052622;28;19940;-55
2021/12/08 08:51:23;;;;;;;;;;;2.70;99.90;;;;;;5052440;28;19925;-54
2021/12/08 08:53:51;;;;;;;;;;;2.80;99.90;;;;;;5052539;28;19982;-53
2021/12/08 08:56:20;;;;;;;;;;;2.80;99.90;;;;;;5053188;28;20341;-53
2021/12/08 08:58:49;;;;;;;;;;;2.70;99.90;;;;;;5047502;28;19925;-55
2021/12/08 09:01:17;;;;;;;;;;;2.50;99.90;;;;;;5054577;28;20059;-53
2021/12/08 09:03:45;;;;;;;;;;;2.20;99.90;;;;;;5055850;28;19974;-54
2021/12/08 09:06:14;;;;;;;;;;;2.20;99.90;;;;;;5055522;28;19975;-53
2021/12/08 09:08:41;;;;;;;;;;;2.10;99.90;;;;;;5044295;28;20447;-55
2021/12/08 09:11:12;;;;;;;;;;;2.20;99.90;;;;;;5057607;28;19925;-54
2021/12/08 09:13:41;;;;;;;;;;;2.30;99.90;;;;;;5062561;28;19938;-55
2021/12/08 09:16:09;;;;;;;;;;;2.30;99.90;;;;;;5072739;28;19949;-54
2021/12/08 09:18:46;;;;;;;;;;;2.40;99.90;;;;;;5058518;28;19932;-54
2021/12/08 09:21:17;;;;;;;;;;;2.30;99.90;;;;;;5031946;28;20352;-55
2021/12/08 09:23:48;;;;;;;;;;;2.20;99.90;;;;;;5037933;28;19982;-55
2021/12/08 09:26:16;;;;;;;;;;;2.30;99.90;;;;;;5058468;28;20394;-54
2021/12/08 09:28:45;;;;;;;;;;;2.30;99.90;;;;;;5032181;28;19925;-55
2021/12/08 09:31:16;;;;;;;;;;;2.60;99.90;;;;;;5056853;28;20337;-54
2021/12/08 09:33:50;;;;;;;;;;;2.60;99.90;;;;;;5054236;28;20324;-52
2021/12/08 09:36:20;;;;;;;;;;;2.60;99.90;;;;;;5054040;28;20378;-54
2021/12/08 09:38:49;;;;;;;;;;;2.40;99.90;;;;;;5056622;28;19925;-54
2021/12/08 09:41:19;;;;;;;;;;;2.10;99.90;;;;;;5051175;28;19924;-56
2021/12/08 09:43:50;;;;;;;;;;;1.90;99.90;;;;;;5051566;28;20298;-53
2021/12/08 09:46:18;;;;;;;;;;;1.90;99.90;;;;;;5051454;28;19928;-53
2021/12/08 09:48:46;;;;;;;;;;;1.80;99.90;;;;;;5056644;28;19929;-54
2021/12/08 09:51:13;;;;;;;;;;;1.60;99.90;;;;;;5051225;28;20369;-54
2021/12/08 09:53:43;;;;;;;;;;;1.50;99.90;;;;;;5051466;28;19928;-54
2021/12/08 09:56:10;;;;;;;;;;;1.50;99.90;;;;;;5050754;28;19925;-56
2021/12/08 09:58:38;;;;;;;;;;;1.50;99.90;;;;;;5051430;28;19925;-54
2021/12/08 10:01:06;;;;;;;;;;;1.70;99.90;;;;;;5052941;28;19955;-54
2021/12/08 10:03:33;;;;;;;;;;;1.70;99.90;;;;;;5057480;28;19925;-54
2021/12/08 10:06:00;;;;;;;;;;;1.80;99.90;;;;;;5051351;28;19924;-56
2021/12/08 10:08:29;;;;;;;;;;;1.80;99.90;;;;;;5031775;28;19987;-54
2021/12/08 10:10:57;;;;;;;;;;;1.80;99.90;;;;;;5031482;28;19983;-55
2021/12/08 10:13:24;;;;;;;;;;;1.90;99.90;;;;;;5032668;28;19932;-55
2021/12/08 10:15:51;;;;;;;;;;;2.00;99.90;;;;;;5053394;28;19925;-54
2021/12/08 10:18:18;;;;;;;;;;;2.00;99.90;;;;;;5067766;28;19924;-55
2021/12/08 10:20:47;;;;;;;;;;;2.00;99.90;;;;;;5054685;28;19971;-55
2021/12/08 10:23:17;;;;;;;;;;;2.10;99.90;;;;;;5062054;28;19981;-53
2021/12/08 10:25:45;;;;;;;;;;;2.10;99.90;;;;;;5076352;28;19928;-53
2021/12/08 10:28:14;;;;;;;;;;;2.20;99.90;;;;;;5058379;28;19925;-53
2021/12/08 10:30:46;;;;;;;;;;;2.20;99.90;;;;;;5051969;28;19928;-56
2021/12/08 10:33:37;;;;;;;;;;;2.20;99.90;;;;;;5066860;28;19988;-57
2021/12/08 10:36:17;;;;;;;;;;;2.30;99.90;;;;;;5067319;28;19932;-53
2021/12/08 10:38:44;;;;;;;;;;;2.30;99.90;;;;;;5066975;28;20398;-58
2021/12/08 10:41:10;;;;;;;;;;;2.30;99.90;;;;;;5065760;28;19998;-55
2021/12/08 10:43:39;;;;;;;;;;;2.30;99.90;;;;;;5069625;28;19951;-56
2021/12/08 10:46:06;;;;;;;;;;;2.20;99.90;;;;;;5066440;28;19924;-55
2021/12/08 10:48:37;;;;;;;;;;;2.20;99.90;;;;;;5063146;28;19936;-56
2021/12/08 10:56:44;;;;;;;;;;;2.20;99.90;;;;;;5048029;28;20033;-57
2021/12/08 10:59:12;;;;;;;;;;;2.30;99.90;;;;;;5047755;28;19955;-54
2021/12/08 11:01:39;;;;;;;;;;;2.30;99.90;;;;;;5047669;28;19997;-54
2021/12/08 11:04:07;;;;;;;;;;;2.40;99.90;;;;;;5047412;28;19935;-55
2021/12/08 11:06:35;;;;;;;;;;;2.50;99.90;;;;;;5046735;28;19929;-55
2021/12/08 11:09:04;;;;;;;;;;;2.50;99.90;;;;;;5047199;28;19933;-54
2021/12/08 11:11:32;;;;;;;;;;;2.50;99.90;;;;;;5046710;28;19924;-54
2021/12/08 11:14:00;;;;;;;;;;;2.50;99.90;;;;;;5043531;28;19978;-54
2021/12/08 11:16:30;;;;;;;;;;;2.50;99.90;;;;;;5053618;28;19924;-55
2021/12/08 11:18:59;;;;;;;;;;;2.60;99.90;;;;;;5052282;28;19951;-55
2021/12/08 11:21:31;;;;;;;;;;;2.50;99.90;;;;;;5064145;28;19928;-55
2021/12/08 11:23:59;;;;;;;;;;;2.20;99.90;;;;;;5059866;28;20295;-55
2021/12/08 11:26:27;;;;;;;;;;;2.30;99.90;;;;;;5059439;28;20457;-54
2021/12/08 11:28:57;;;;;;;;;;;2.50;99.90;;;;;;5063936;28;19954;-54
2021/12/08 11:31:25;;;;;;;;;;;2.60;99.90;;;;;;5047532;28;19965;-54
2021/12/08 11:34:00;;;;;;;;;;;2.60;99.90;;;;;;5045920;28;20423;-57
2021/12/08 11:36:27;;;;;;;;;;;2.60;99.90;;;;;;5051001;28;19929;-54
2021/12/08 11:38:54;;;;;;;;;;;2.70;99.90;;;;;;5046461;28;20011;-54
2021/12/08 11:41:27;;;;;;;;;;;2.70;99.90;;;;;;5045780;28;19929;-55
2021/12/08 11:43:54;;;;;;;;;;;2.80;99.90;;;;;;5050823;28;20013;-55
2021/12/08 11:46:21;;;;;;;;;;;2.80;99.90;;;;;;5045480;28;19974;-54
2021/12/08 11:49:00;;;;;;;;;;;2.90;99.90;;;;;;5045810;28;20525;-53
2021/12/08 11:51:27;;;;;;;;;;;3.00;99.90;;;;;;5048319;28;20662;-54
2021/12/08 11:53:54;;;;;;;;;;;2.90;99.90;;;;;;5046011;28;20452;-54
2021/12/08 11:56:31;;;;;;;;;;;2.90;99.90;;;;;;5047287;28;19925;-55
2021/12/08 11:58:58;;;;;;;;;;;2.90;99.90;;;;;;5045456;28;20050;-58
2021/12/08 12:01:25;;;;;;;;;;;2.70;99.90;;;;;;5043769;28;19929;-54
2021/12/08 12:03:53;;;;;;;;;;;2.60;99.90;;;;;;5055738;28;19948;-54
2021/12/08 12:06:27;;;;;;;;;;;2.60;99.90;;;;;;5065453;28;19925;-54
2021/12/08 12:08:55;;;;;;;;;;;2.70;99.90;;;;;;5068507;28;19928;-54
2021/12/08 12:11:24;;;;;;;;;;;2.70;99.90;;;;;;5054143;28;19955;-54
2021/12/08 12:13:50;;;;;;;;;;;2.60;99.90;;;;;;5052574;28;19924;-55
2021/12/08 12:16:17;;;;;;;;;;;2.50;99.90;;;;;;5064385;28;19978;-53
2021/12/08 12:18:44;;;;;;;;;;;2.50;99.90;;;;;;5053113;28;19975;-54
2021/12/08 12:21:15;;;;;;;;;;;2.60;99.90;;;;;;5061316;28;19925;-55
2021/12/08 12:23:59;;;;;;;;;;;2.50;99.90;;;;;;5060884;28;19925;-54
2021/12/08 12:26:31;;;;;;;;;;;2.60;99.90;;;;;;5054067;28;19936;-54
2021/12/08 12:29:10;;;;;;;;;;;2.60;99.90;;;;;;5062442;28;19994;-55
2021/12/08 12:31:42;;;;;;;;;;;2.70;99.90;;;;;;5063067;28;20019;-54
2021/12/08 12:34:21;;;;;;;;;;;2.70;99.90;;;;;;5061838;28;19932;-55
2021/12/08 12:36:49;;;;;;;;;;;2.60;99.90;;;;;;5062929;28;19924;-54
2021/12/08 12:39:17;;;;;;;;;;;2.70;99.90;;;;;;5065746;28;19924;-54
2021/12/08 12:41:44;;;;;;;;;;;2.70;99.90;;;;;;5059394;28;19986;-55
2021/12/08 12:44:16;;;;;;;;;;;2.70;99.90;;;;;;5060109;28;19924;-56
2021/12/08 12:47:01;;;;;;;;;;;2.70;99.90;;;;;;5059443;28;20394;-55
2021/12/08 12:49:27;;;;;;;;;;;2.60;99.90;;;;;;5049216;28;19941;-55
2021/12/08 12:51:59;;;;;;;;;;;2.50;99.90;;;;;;5059236;28;19933;-54
2021/12/08 12:54:26;;;;;;;;;;;2.50;99.90;;;;;;5064224;28;19994;-54
2021/12/08 12:56:54;;;;;;;;;;;2.60;99.90;;;;;;5066566;28;19928;-54
2021/12/08 12:59:27;;;;;;;;;;;2.60;99.90;;;;;;5064411;28;19977;-55
2021/12/08 13:02:07;;;;;;;;;;;2.60;99.90;;;;;;5060399;28;19929;-55
2021/12/08 13:04:35;;;;;;;;;;;2.60;99.90;;;;;;5054938;28;19936;-53
2021/12/08 13:07:04;;;;;;;;;;;2.60;99.90;;;;;;5061295;28;19954;-55
2021/12/08 13:09:46;;;;;;;;;;;2.60;99.90;;;;;;5064241;28;19931;-53
2021/12/08 13:12:14;;;;;;;;;;;2.40;99.90;;;;;;5052043;28;19924;-53
2021/12/08 13:14:41;;;;;;;;;;;2.50;99.90;;;;;;5055652;28;19931;-53
2021/12/08 13:17:09;;;;;;;;;;;2.30;99.90;;;;;;5060786;28;19928;-54
2021/12/08 13:19:40;;;;;;;;;;;2.40;99.90;;;;;;5060697;28;19924;-54
2021/12/08 13:22:09;;;;;;;;;;;2.50;99.90;;;;;;5064924;28;20306;-57
2021/12/08 13:24:40;;;;;;;;;;;2.50;99.90;;;;;;5061325;28;19924;-52
2021/12/08 13:27:08;;;;;;;;;;;2.50;99.90;;;;;;5059986;28;19987;-53
2021/12/08 13:29:39;;;;;;;;;;;2.50;99.90;;;;;;5065097;28;19997;-54
2021/12/08 13:32:13;;;;;;;;;;;2.60;99.90;;;;;;5061012;28;20019;-54
2021/12/08 13:34:41;;;;;;;;;;;2.60;99.90;;;;;;5054151;28;20058;-53
2021/12/08 13:37:19;;;;;;;;;;;2.50;99.90;;;;;;5061310;28;19924;-53
2021/12/08 13:39:46;;;;;;;;;;;2.50;99.90;;;;;;5060247;28;19955;-53
2021/12/08 13:42:14;;;;;;;;;;;2.50;99.90;;;;;;5063095;28;19950;-54
2021/12/08 13:44:41;;;;;;;;;;;2.40;99.90;;;;;;5062164;28;19977;-54
2021/12/08 13:47:09;;;;;;;;;;;2.50;99.90;;;;;;5058135;28;20445;-55
2021/12/08 13:49:47;;;;;;;;;;;2.50;99.90;;;;;;5054473;28;19978;-53
2021/12/08 13:52:22;;;;;;;;;;;2.50;99.90;;;;;;5042012;28;19925;-53
2021/12/08 13:54:50;;;;;;;;;;;2.50;99.90;;;;;;5059673;28;19978;-53
2021/12/08 13:57:28;;;;;;;;;;;2.50;99.90;;;;;;5060100;28;20387;-55
2021/12/08 13:59:55;;;;;;;;;;;2.50;99.90;;;;;;5052977;28;19928;-55
2021/12/08 14:02:23;;;;;;;;;;;2.30;99.90;;;;;;5060610;28;19924;-54
2021/12/08 14:04:57;;;;;;;;;;;1.80;99.90;;;;;;5053216;28;19978;-55
2021/12/08 14:07:25;;;;;;;;;;;1.80;99.90;;;;;;5053274;28;20435;-53
2021/12/08 14:09:55;;;;;;;;;;;1.90;99.90;;;;;;5059054;28;19971;-53
2021/12/08 14:12:22;;;;;;;;;;;2.00;99.90;;;;;;5059233;28;19928;-53
2021/12/08 14:14:54;;;;;;;;;;;2.10;99.90;;;;;;5056276;28;19976;-54
2021/12/08 14:17:26;;;;;;;;;;;2.20;99.90;;;;;;5061913;28;19970;-53
2021/12/08 14:19:53;;;;;;;;;;;2.20;99.90;;;;;;5061454;28;19925;-55
2021/12/08 14:22:20;;;;;;;;;;;2.10;99.90;;;;;;5056522;28;19925;-53
2021/12/08 14:24:56;;;;;;;;;;;2.20;99.90;;;;;;5057581;28;20460;-53
2021/12/08 14:27:29;;;;;;;;;;;2.10;99.90;;;;;;5063423;28;19929;-53
2021/12/08 14:29:57;;;;;;;;;;;2.00;99.90;;;;;;5060323;28;19937;-52
2021/12/08 14:32:23;;;;;;;;;;;2.00;99.90;;;;;;5061205;28;19928;-54
2021/12/08 14:34:50;;;;;;;;;;;2.00;99.90;;;;;;5057555;28;19933;-52
2021/12/08 14:37:17;;;;;;;;;;;2.00;99.90;;;;;;5044744;28;19979;-53
2021/12/08 14:39:46;;;;;;;;;;;2.10;99.90;;;;;;5044405;28;20078;-55
2021/12/08 14:42:15;;;;;;;;;;;1.90;99.90;;;;;;5057264;28;19970;-53
2021/12/08 14:44:43;;;;;;;;;;;1.70;99.90;;;;;;5044310;28;20808;-56
2021/12/08 14:47:11;;;;;;;;;;;1.90;99.90;;;;;;5043652;28;19925;-53
2021/12/08 14:49:40;;;;;;;;;;;1.90;99.90;;;;;;5041994;28;20375;-55
2021/12/08 14:52:08;;;;;;;;;;;2.00;99.90;;;;;;5043187;28;19939;-52
2021/12/08 14:54:36;;;;;;;;;;;1.90;99.90;;;;;;5044130;28;19990;-52
2021/12/08 14:57:08;;;;;;;;;;;2.00;99.90;;;;;;5058502;28;20272;-53
2021/12/08 14:59:38;;;;;;;;;;;1.90;99.90;;;;;;5047529;28;19928;-53
2021/12/08 15:02:05;;;;;;;;;;;2.00;99.90;;;;;;5059436;28;19932;-53
2021/12/08 15:04:32;;;;;;;;;;;1.80;99.90;;;;;;5062188;28;19925;-52
2021/12/08 15:07:00;;;;;;;;;;;1.70;99.90;;;;;;5062828;28;20448;-53
2021/12/08 15:09:28;;;;;;;;;;;1.70;99.90;;;;;;5054060;28;19933;-55
2021/12/08 15:11:55;;;;;;;;;;;1.60;99.90;;;;;;5047107;28;19951;-53
2021/12/08 15:14:22;;;;;;;;;;;1.60;99.90;;;;;;5048873;28;19925;-53
2021/12/08 15:16:52;;;;;;;;;;;1.70;99.90;;;;;;5048047;28;20468;-57
2021/12/08 15:19:21;;;;;;;;;;;1.80;99.90;;;;;;5046370;28;20473;-56
2021/12/08 15:21:50;;;;;;;;;;;1.90;99.90;;;;;;5053774;28;19933;-57